createdAt,value
2019-02-18T00:02:17.594Z,72.25
2019-02-18T00:04:49.617Z,72.45
2019-02-18T00:07:21.612Z,72.66
2019-02-18T00:09:53.626Z,72.69
2019-02-18T00:12:25.662Z,72.58
2019-02-18T00:14:57.616Z,73.10
2019-02-18T00:17:29.626Z,73.17
2019-02-18T00:20:01.629Z,73.18
2019-02-18T00:22:33.616Z,73.12
2019-02-18T00:25:05.613Z,72.84
2019-02-18T00:27:37.672Z,73.21
2019-02-18T00:30:09.634Z,73.05
2019-02-18T00:32:41.651Z,73.07
2019-02-18T00:35:13.651Z,73.37
2019-02-18T00:37:45.658Z,73.66
2019-02-18T00:40:17.654Z,73.43
2019-02-18T00:42:49.660Z,73.40
2019-02-18T00:45:21.661Z,73.39
2019-02-18T00:47:53.647Z,73.32
2019-02-18T00:50:25.678Z,73.48
2019-02-18T00:52:57.693Z,73.49
2019-02-18T00:55:29.669Z,73.73
2019-02-18T00:58:01.682Z,74.25
2019-02-18T01:00:33.907Z,74.49
2019-02-18T01:03:06.035Z,74.73
2019-02-18T01:05:38.021Z,74.06
2019-02-18T01:08:10.019Z,73.99
2019-02-18T01:10:41.999Z,73.86
2019-02-18T01:13:13.998Z,74.22
2019-02-18T01:15:45.975Z,74.27
2019-02-18T01:18:18.093Z,74.03
2019-02-18T01:20:50.081Z,73.79
2019-02-18T01:23:22.191Z,73.84
2019-02-18T01:25:54.161Z,74.02
2019-02-18T01:28:26.174Z,73.92
2019-02-18T01:30:58.203Z,73.82
2019-02-18T01:33:30.234Z,73.78
2019-02-18T01:36:02.205Z,73.53
2019-02-18T01:38:34.197Z,73.68
2019-02-18T01:41:06.175Z,73.75
2019-02-18T01:43:38.155Z,73.70
2019-02-18T01:46:10.096Z,73.59
2019-02-18T01:48:42.108Z,73.70
2019-02-18T01:51:14.085Z,73.53
2019-02-18T01:53:46.904Z,73.54
2019-02-18T01:56:18.891Z,73.49
2019-02-18T01:58:50.874Z,73.01
2019-02-18T02:01:22.829Z,73.39
2019-02-18T02:03:54.819Z,73.54
2019-02-18T02:06:26.772Z,73.98
2019-02-18T02:08:58.751Z,73.88
2019-02-18T02:11:30.760Z,73.79
2019-02-18T02:14:02.750Z,73.99
2019-02-18T02:16:34.716Z,74.23
2019-02-18T02:19:06.728Z,74.20
2019-02-18T02:21:38.696Z,74.04
2019-02-18T02:24:10.686Z,74.41
2019-02-18T02:26:42.658Z,74.28
2019-02-18T02:29:14.690Z,74.36
2019-02-18T02:31:46.687Z,74.59
2019-02-18T02:34:18.676Z,74.73
2019-02-18T02:36:50.667Z,74.57
2019-02-18T02:39:22.672Z,74.65
2019-02-18T02:41:54.649Z,74.85
2019-02-18T02:44:26.599Z,75.06
2019-02-18T02:46:58.575Z,75.38
2019-02-18T02:49:30.554Z,74.81
2019-02-18T02:52:02.517Z,75.03
2019-02-18T02:54:34.481Z,75.45
2019-02-18T02:57:06.489Z,75.51
2019-02-18T02:59:38.463Z,75.91
2019-02-18T03:02:10.464Z,75.77
2019-02-18T03:04:42.430Z,75.84
2019-02-18T03:07:14.412Z,75.97
2019-02-18T03:09:46.355Z,75.85
2019-02-18T03:12:18.362Z,75.96
2019-02-18T03:14:50.334Z,76.04
2019-02-18T03:17:22.340Z,76.04
2019-02-18T03:19:54.325Z,76.04
2019-02-18T03:22:26.333Z,75.77
2019-02-18T03:25:21.420Z,75.82
2019-02-18T03:28:06.503Z,75.84
2019-02-18T03:30:43.952Z,75.52
2019-02-18T03:33:19.330Z,75.29
2019-02-18T03:35:51.330Z,75.58
2019-02-18T03:38:31.275Z,75.73
2019-02-18T03:41:03.255Z,75.80
2019-02-18T03:43:31.033Z,75.88
2019-02-18T03:46:02.993Z,75.82
2019-02-18T03:48:34.996Z,75.68
2019-02-18T03:51:06.975Z,75.82
2019-02-18T03:53:38.956Z,75.89
2019-02-18T03:56:10.906Z,76.06
2019-02-18T03:58:42.889Z,76.03
2019-02-18T04:01:14.835Z,75.80
2019-02-18T04:03:46.811Z,75.75
2019-02-18T04:06:18.774Z,75.87
2019-02-18T04:08:50.742Z,75.76
2019-02-18T04:11:22.712Z,75.35
2019-02-18T04:13:54.733Z,75.40
2019-02-18T04:16:26.670Z,75.51
2019-02-18T04:18:58.667Z,75.65
2019-02-18T04:21:30.645Z,75.79
2019-02-18T04:24:02.622Z,75.84
2019-02-18T04:26:34.585Z,75.82
2019-02-18T04:29:06.700Z,75.95
2019-02-18T04:31:38.657Z,75.86
2019-02-18T04:34:10.666Z,75.91
2019-02-18T04:36:42.876Z,75.56
2019-02-18T04:39:15.303Z,75.29
2019-02-18T04:41:47.292Z,75.51
2019-02-18T04:44:19.298Z,74.91
2019-02-18T04:46:51.516Z,74.54
2019-02-18T04:49:23.522Z,74.54
2019-02-18T04:51:55.502Z,74.72
2019-02-18T04:54:27.473Z,74.95
2019-02-18T04:56:59.451Z,75.37
2019-02-18T04:59:31.420Z,75.34
2019-02-18T05:02:03.399Z,75.60
2019-02-18T05:04:35.355Z,75.66
2019-02-18T05:07:07.331Z,75.82
2019-02-18T05:09:40.125Z,75.79
2019-02-18T05:12:12.349Z,75.83
2019-02-18T05:14:44.335Z,75.50
2019-02-18T05:17:16.350Z,75.59
2019-02-18T05:19:48.330Z,75.47
2019-02-18T05:22:20.308Z,75.00
2019-02-18T05:24:52.265Z,75.34
2019-02-18T05:27:33.097Z,75.08
2019-02-18T05:29:58.097Z,75.41
2019-02-18T05:32:30.101Z,75.47
2019-02-18T05:35:02.098Z,74.86
2019-02-18T05:37:34.045Z,74.98
2019-02-18T05:40:06.069Z,74.83
2019-02-18T05:42:38.053Z,74.63
2019-02-18T05:45:10.082Z,74.97
2019-02-18T05:47:42.088Z,75.31
2019-02-18T05:50:14.078Z,75.60
2019-02-18T05:52:46.068Z,75.65
2019-02-18T05:55:18.025Z,75.87
2019-02-18T05:57:50.021Z,76.27
2019-02-18T06:00:21.976Z,76.26
2019-02-18T06:02:53.974Z,76.21
2019-02-18T06:05:25.946Z,76.09
2019-02-18T06:07:57.944Z,76.12
2019-02-18T06:10:29.932Z,75.85
2019-02-18T06:13:01.943Z,75.99
2019-02-18T06:15:33.917Z,75.71
2019-02-18T06:18:05.964Z,75.73
2019-02-18T06:20:37.954Z,75.69
2019-02-18T06:23:09.933Z,75.59
2019-02-18T06:25:41.966Z,75.42
2019-02-18T06:28:13.976Z,75.47
2019-02-18T06:30:45.932Z,75.79
2019-02-18T06:33:17.923Z,75.93
2019-02-18T06:35:50.417Z,75.99
2019-02-18T06:38:22.447Z,76.27
2019-02-18T06:40:54.415Z,76.29
2019-02-18T06:43:26.420Z,76.25
2019-02-18T06:46:12.194Z,76.01
2019-02-18T06:48:50.985Z,75.80
2019-02-18T06:51:22.962Z,75.63
2019-02-18T06:53:55.000Z,75.46
2019-02-18T06:56:46.540Z,75.41
2019-02-18T06:59:24.166Z,75.25
2019-02-18T07:02:15.773Z,74.71
2019-02-18T07:05:07.412Z,73.91
2019-02-18T07:07:59.085Z,72.44
2019-02-18T07:10:50.644Z,71.71
2019-02-18T07:13:22.627Z,71.59
2019-02-18T07:15:54.643Z,71.03
2019-02-18T07:18:26.652Z,70.66
2019-02-18T07:20:58.662Z,69.45
2019-02-18T07:23:30.647Z,68.07
2019-02-18T07:26:02.655Z,67.66
2019-02-18T07:28:34.689Z,65.68
2019-02-18T07:31:06.720Z,65.80
2019-02-18T07:33:38.684Z,65.89
2019-02-18T07:36:10.674Z,64.81
2019-02-18T07:38:42.679Z,64.26
2019-02-18T07:41:14.690Z,63.71
2019-02-18T07:43:46.680Z,62.95
2019-02-18T07:46:18.653Z,62.73
2019-02-18T07:48:50.631Z,62.62
2019-02-18T07:51:22.652Z,62.09
2019-02-18T07:53:54.614Z,63.40
2019-02-18T07:56:26.604Z,63.26
2019-02-18T07:58:58.586Z,62.62
2019-02-18T08:01:30.589Z,61.42
2019-02-18T08:04:02.560Z,60.16
2019-02-18T08:06:34.565Z,59.96
2019-02-18T08:09:06.773Z,60.27
2019-02-18T08:11:38.774Z,61.02
2019-02-18T08:14:10.769Z,60.34
2019-02-18T08:16:42.774Z,60.47
2019-02-18T08:19:15.658Z,58.89
2019-02-18T08:24:26.910Z,59.13
2019-02-18T08:26:58.930Z,58.79
2019-02-18T08:29:30.933Z,58.70
2019-02-18T08:32:02.925Z,58.53
2019-02-18T08:34:34.914Z,58.95
2019-02-18T08:37:06.953Z,58.77
2019-02-18T08:39:38.961Z,57.94
2019-02-18T08:42:10.984Z,57.51
2019-02-18T08:44:42.958Z,56.95
2019-02-18T08:47:14.954Z,57.64
2019-02-18T08:49:46.971Z,57.92
2019-02-18T08:52:18.992Z,57.91
2019-02-18T08:54:56.608Z,56.38
2019-02-18T08:57:24.963Z,55.78
2019-02-18T08:59:56.973Z,54.57
2019-02-18T09:02:28.959Z,54.80
2019-02-18T09:05:00.971Z,54.12
2019-02-18T09:07:32.966Z,53.88
2019-02-18T09:10:05.302Z,54.55
2019-02-18T09:12:37.283Z,53.44
2019-02-18T09:15:09.480Z,53.32
2019-02-18T09:17:41.523Z,52.20
2019-02-18T09:20:13.587Z,51.78
2019-02-18T09:23:05.125Z,52.15
2019-02-18T09:25:56.709Z,51.38
2019-02-18T09:28:28.727Z,50.82
2019-02-18T09:31:00.735Z,50.21
2019-02-18T09:33:32.740Z,50.26
2019-02-18T09:36:04.748Z,50.39
2019-02-18T09:41:35.828Z,50.28
2019-02-18T09:44:07.873Z,49.19
2019-02-18T09:46:40.486Z,49.16
2019-02-18T09:49:13.853Z,48.76
2019-02-18T09:51:45.905Z,48.00
2019-02-18T09:54:17.889Z,47.70
2019-02-18T09:56:49.902Z,47.85
2019-02-18T09:59:23.940Z,47.40
2019-02-18T10:01:55.961Z,47.31
2019-02-18T10:04:28.036Z,47.05
2019-02-18T10:07:00.051Z,45.91
2019-02-18T10:09:32.046Z,45.01
2019-02-18T10:12:04.048Z,44.98
2019-02-18T10:14:36.041Z,44.07
2019-02-18T10:17:08.018Z,44.55
2019-02-18T10:19:40.025Z,44.46
2019-02-18T10:22:12.023Z,44.19
2019-02-18T10:24:50.726Z,43.01
2019-02-18T10:27:17.930Z,41.95
2019-02-18T10:29:50.027Z,41.44
2019-02-18T10:32:22.044Z,41.02
2019-02-18T10:34:54.082Z,40.53
2019-02-18T10:37:26.068Z,39.91
2019-02-18T10:39:58.099Z,39.24
2019-02-18T10:42:30.105Z,38.91
2019-02-18T10:45:02.146Z,38.38
2019-02-18T10:47:34.191Z,38.34
2019-02-18T10:50:07.067Z,38.30
2019-02-18T10:52:39.088Z,38.81
2019-02-18T10:55:11.184Z,38.97
2019-02-18T10:57:43.507Z,38.29
2019-02-18T11:00:15.517Z,36.98
2019-02-18T11:02:48.865Z,37.14
2019-02-18T11:05:20.858Z,37.60
2019-02-18T11:07:52.876Z,36.56
2019-02-18T11:10:24.866Z,36.43
2019-02-18T11:12:56.992Z,35.59
2019-02-18T11:15:29.284Z,35.35
2019-02-18T11:18:01.355Z,34.70
2019-02-18T11:20:33.350Z,34.93
2019-02-18T11:23:05.355Z,35.17
2019-02-18T11:25:37.346Z,34.83
2019-02-18T11:28:09.478Z,35.24
2019-02-18T11:30:41.485Z,35.06
2019-02-18T11:33:13.460Z,35.02
2019-02-18T11:35:45.437Z,34.71
2019-02-18T11:38:17.410Z,35.02
2019-02-18T11:40:49.433Z,35.03
2019-02-18T11:43:21.423Z,34.70
2019-02-18T11:45:53.404Z,34.81
2019-02-18T11:48:25.379Z,35.00
2019-02-18T11:50:57.787Z,35.12
2019-02-18T11:53:29.791Z,34.71
2019-02-18T11:56:01.790Z,35.54
2019-02-18T11:58:33.769Z,35.49
2019-02-18T12:01:05.761Z,34.66
2019-02-18T12:03:37.767Z,34.71
2019-02-18T12:06:09.761Z,34.52
2019-02-18T12:08:41.755Z,34.72
2019-02-18T12:11:13.760Z,34.51
2019-02-18T12:13:45.734Z,34.41
2019-02-18T12:16:17.750Z,34.32
2019-02-18T12:18:49.775Z,33.84
2019-02-18T12:21:21.828Z,33.95
2019-02-18T12:23:53.917Z,34.10
2019-02-18T12:26:25.921Z,33.54
2019-02-18T12:28:57.917Z,33.24
2019-02-18T12:31:29.899Z,33.29
2019-02-18T12:34:01.886Z,32.97
2019-02-18T12:36:33.866Z,32.54
2019-02-18T12:39:11.916Z,32.76
2019-02-18T12:41:48.817Z,32.54
2019-02-18T12:44:17.864Z,32.85
2019-02-18T12:46:49.888Z,32.87
2019-02-18T12:49:21.884Z,31.95
2019-02-18T12:51:53.881Z,31.54
2019-02-18T12:54:26.516Z,31.27
2019-02-18T12:56:58.593Z,31.16
2019-02-18T12:59:31.011Z,31.37
2019-02-18T13:02:03.281Z,30.87
2019-02-18T13:04:35.706Z,30.42
2019-02-18T13:07:07.696Z,30.27
2019-02-18T13:09:39.647Z,29.44
2019-02-18T13:12:11.700Z,29.82
2019-02-18T13:14:43.651Z,30.37
2019-02-18T13:17:15.661Z,30.39
2019-02-18T13:19:47.974Z,30.11
2019-02-18T13:22:20.053Z,29.50
2019-02-18T13:24:52.039Z,29.18
2019-02-18T13:27:24.012Z,29.05
2019-02-18T13:29:56.004Z,29.23
2019-02-18T13:32:28.404Z,29.19
2019-02-18T13:35:00.417Z,29.06
2019-02-18T13:37:32.407Z,28.78
2019-02-18T13:40:04.987Z,28.17
2019-02-18T13:42:37.015Z,28.97
2019-02-18T13:45:09.332Z,28.34
2019-02-18T13:47:41.445Z,28.57
2019-02-18T13:50:13.657Z,27.92
2019-02-18T13:52:45.658Z,27.41
2019-02-18T13:55:17.962Z,27.81
2019-02-18T13:57:49.904Z,27.95
2019-02-18T14:00:21.941Z,28.16
2019-02-18T14:02:53.891Z,27.79
2019-02-18T14:05:25.918Z,28.36
2019-02-18T14:07:57.884Z,27.81
2019-02-18T14:10:29.887Z,27.88
2019-02-18T14:13:01.874Z,27.16
2019-02-18T14:15:33.907Z,27.37
2019-02-18T14:18:06.061Z,27.95
2019-02-18T14:20:38.076Z,28.23
2019-02-18T14:23:10.088Z,26.85
2019-02-18T14:25:42.078Z,26.96
2019-02-18T14:28:14.053Z,26.72
2019-02-18T14:30:46.094Z,26.95
2019-02-18T14:33:18.680Z,26.90
2019-02-18T14:35:50.699Z,26.44
2019-02-18T14:38:22.721Z,26.92
2019-02-18T14:40:55.066Z,26.76
2019-02-18T14:43:27.083Z,26.75
2019-02-18T14:45:59.405Z,26.54
2019-02-18T14:48:31.378Z,26.88
2019-02-18T14:51:03.532Z,27.47
2019-02-18T14:53:35.534Z,27.01
2019-02-18T14:56:09.435Z,27.39
2019-02-18T14:58:41.417Z,27.73
2019-02-18T15:01:13.420Z,27.19
2019-02-18T15:03:45.413Z,26.86
2019-02-18T15:06:17.463Z,27.51
2019-02-18T15:08:49.466Z,27.88
2019-02-18T15:11:21.472Z,27.59
2019-02-18T15:13:53.506Z,27.07
2019-02-18T15:16:25.512Z,26.06
2019-02-18T15:18:57.560Z,23.65
2019-02-18T15:21:29.820Z,23.48
2019-02-18T15:24:01.802Z,19.97
2019-02-18T15:26:33.785Z,20.27
2019-02-18T15:29:05.776Z,20.22
2019-02-18T15:31:37.841Z,20.27
2019-02-18T15:34:10.370Z,20.24
2019-02-18T15:36:42.399Z,20.77
2019-02-18T15:39:14.383Z,21.69
2019-02-18T15:41:46.388Z,22.91
2019-02-18T15:44:18.429Z,24.19
2019-02-18T15:46:50.749Z,24.93
2019-02-18T15:49:22.777Z,25.36
2019-02-18T15:51:54.825Z,25.42
2019-02-18T15:54:26.900Z,25.66
2019-02-18T15:56:58.927Z,26.06
2019-02-18T15:59:30.937Z,26.64
2019-02-18T16:02:03.040Z,27.38
2019-02-18T16:04:35.121Z,27.75
2019-02-18T16:07:07.120Z,27.94
2019-02-18T16:09:39.188Z,28.19
2019-02-18T16:12:11.194Z,29.79
2019-02-18T16:14:43.247Z,30.88
2019-02-18T16:17:15.306Z,31.59
2019-02-18T16:19:47.372Z,32.31
2019-02-18T16:22:19.387Z,32.97
2019-02-18T16:24:51.426Z,33.80
2019-02-18T16:27:23.524Z,34.83
2019-02-18T16:29:55.567Z,35.40
2019-02-18T16:32:47.048Z,36.53
2019-02-18T16:35:19.067Z,37.26
2019-02-18T16:37:51.077Z,37.92
2019-02-18T16:40:23.123Z,38.55
2019-02-18T16:42:59.312Z,39.11
2019-02-18T16:45:29.122Z,39.24
2019-02-18T16:48:01.155Z,39.32
2019-02-18T16:50:33.186Z,39.55
2019-02-18T16:53:05.181Z,39.80
2019-02-18T16:55:39.143Z,39.97
2019-02-18T16:58:11.162Z,40.69
2019-02-18T17:00:43.235Z,41.30
2019-02-18T17:03:15.267Z,41.92
2019-02-18T17:05:47.377Z,42.47
2019-02-18T17:08:19.444Z,42.87
2019-02-18T17:10:51.500Z,43.60
2019-02-18T17:13:23.496Z,44.17
2019-02-18T17:15:55.570Z,44.70
2019-02-18T17:18:27.645Z,45.09
2019-02-18T17:20:59.744Z,45.37
2019-02-18T17:23:31.856Z,45.37
2019-02-18T17:26:03.933Z,45.83
2019-02-18T17:28:36.011Z,44.92
2019-02-18T17:31:08.034Z,44.27
2019-02-18T17:33:40.103Z,44.62
2019-02-18T17:36:12.135Z,44.87
2019-02-18T17:38:44.165Z,45.01
2019-02-18T17:41:16.232Z,45.38
2019-02-18T17:44:29.007Z,46.22
2019-02-18T17:49:39.767Z,48.24
2019-02-18T17:52:11.833Z,48.92
2019-02-18T17:54:43.904Z,49.42
2019-02-18T17:57:16.037Z,49.87
2019-02-18T17:59:48.070Z,50.14
2019-02-18T18:02:22.085Z,49.94
2019-02-18T18:04:54.134Z,50.28
2019-02-18T18:07:26.213Z,50.28
2019-02-18T18:09:58.276Z,50.47
2019-02-18T18:12:30.420Z,49.65
2019-02-18T18:15:02.594Z,49.53
2019-02-18T18:17:34.688Z,49.16
2019-02-18T18:20:07.653Z,49.07
2019-02-18T18:25:19.734Z,48.63
2019-02-18T18:27:51.841Z,48.75
2019-02-18T18:30:23.930Z,48.82
2019-02-18T18:32:56.041Z,48.75
2019-02-18T18:35:28.231Z,48.97
2019-02-18T18:38:00.332Z,49.17
2019-02-18T18:40:32.476Z,49.65
2019-02-18T18:43:04.621Z,50.68
2019-02-18T18:45:36.729Z,51.81
2019-02-18T18:48:08.777Z,52.94
2019-02-18T18:50:40.863Z,53.16
2019-02-18T18:53:12.866Z,53.26
2019-02-18T18:55:45.029Z,53.52
2019-02-18T18:58:17.045Z,53.72
2019-02-18T19:00:50.994Z,54.15
2019-02-18T19:03:23.101Z,54.18
2019-02-18T19:05:55.170Z,54.22
2019-02-18T19:08:27.210Z,53.85
2019-02-18T19:10:59.280Z,52.77
2019-02-18T19:13:31.343Z,53.08
2019-02-18T19:16:03.524Z,53.29
2019-02-18T19:18:35.764Z,54.00
2019-02-18T19:21:07.862Z,54.54
2019-02-18T19:23:41.797Z,54.64
2019-02-18T19:26:13.954Z,54.87
2019-02-18T19:28:46.557Z,54.97
2019-02-18T19:31:18.749Z,55.45
2019-02-18T19:33:51.373Z,56.08
2019-02-18T19:36:23.658Z,56.19
2019-02-18T19:39:15.453Z,56.64
2019-02-18T19:41:47.626Z,56.91
2019-02-18T19:44:20.050Z,56.61
2019-02-18T19:46:52.196Z,56.72
2019-02-18T19:49:24.278Z,57.07
2019-02-18T19:51:56.386Z,57.27
2019-02-18T19:54:28.573Z,57.62
2019-02-18T19:57:00.647Z,57.82
2019-02-18T19:59:32.728Z,57.80
2019-02-18T20:02:04.867Z,57.79
2019-02-18T20:04:36.972Z,58.34
2019-02-18T20:07:09.532Z,58.67
2019-02-18T20:09:41.635Z,58.71
2019-02-18T20:12:13.730Z,58.99
2019-02-18T20:14:46.038Z,59.21
2019-02-18T20:17:18.225Z,59.60
2019-02-18T20:19:50.711Z,60.08
2019-02-18T20:22:22.940Z,60.06
2019-02-18T20:24:55.632Z,59.87
2019-02-18T20:27:28.131Z,60.15
2019-02-18T20:30:00.309Z,60.07
2019-02-18T20:32:32.590Z,60.31
2019-02-18T20:35:04.883Z,60.41
2019-02-18T20:37:36.985Z,60.51
2019-02-18T20:40:09.304Z,61.08
2019-02-18T20:42:41.883Z,61.46
2019-02-18T20:45:14.372Z,61.56
2019-02-18T20:47:46.534Z,61.64
2019-02-18T20:50:18.597Z,62.06
2019-02-18T20:52:50.727Z,62.02
2019-02-18T20:55:23.129Z,62.15
2019-02-18T20:57:55.202Z,62.13
2019-02-18T21:00:27.241Z,62.38
2019-02-18T21:02:59.341Z,62.63
2019-02-18T21:05:31.402Z,62.81
2019-02-18T21:08:03.580Z,62.84
2019-02-18T21:10:35.632Z,63.10
2019-02-18T21:13:07.679Z,63.48
2019-02-18T21:15:40.833Z,63.67
2019-02-18T21:18:13.193Z,63.69
2019-02-18T21:20:47.095Z,64.02
2019-02-18T21:23:19.136Z,64.19
2019-02-18T21:25:51.197Z,64.14
2019-02-18T21:28:25.208Z,64.41
2019-02-18T21:30:57.369Z,64.45
2019-02-18T21:33:29.465Z,64.62
2019-02-18T21:36:01.755Z,64.64
2019-02-18T21:38:33.784Z,64.90
2019-02-18T21:41:05.826Z,65.02
2019-02-18T21:43:38.789Z,64.94
2019-02-18T21:46:10.827Z,65.25
2019-02-18T21:48:42.808Z,65.28
2019-02-18T21:51:14.873Z,65.17
2019-02-18T21:53:46.896Z,65.07
2019-02-18T21:56:18.955Z,64.77
2019-02-18T21:58:52.748Z,65.07
2019-02-18T22:01:24.794Z,65.62
2019-02-18T22:03:56.757Z,65.58
2019-02-18T22:06:29.325Z,65.77
2019-02-18T22:09:01.351Z,65.52
2019-02-18T22:11:33.375Z,65.66
2019-02-18T22:14:05.449Z,66.35
2019-02-18T22:16:38.614Z,66.48
2019-02-18T22:19:11.046Z,66.68
2019-02-18T22:21:43.484Z,66.76
2019-02-18T22:24:15.547Z,66.63
2019-02-18T22:26:47.578Z,66.71
2019-02-18T22:29:19.777Z,66.79
2019-02-18T22:31:52.205Z,66.81
2019-02-18T22:34:24.204Z,67.00
2019-02-18T22:36:56.258Z,67.22
2019-02-18T22:39:29.364Z,67.12
2019-02-18T22:42:01.377Z,67.29
2019-02-18T22:44:41.736Z,67.19
2019-02-18T22:47:09.477Z,67.41
2019-02-18T22:49:41.467Z,68.38
2019-02-18T22:52:13.467Z,68.34
2019-02-18T22:54:45.429Z,68.30
2019-02-18T22:57:17.462Z,68.39
2019-02-18T22:59:49.466Z,68.38
2019-02-18T23:02:22.772Z,68.43
2019-02-18T23:04:54.773Z,68.13
2019-02-18T23:07:26.944Z,68.09
2019-02-18T23:09:59.051Z,68.06
2019-02-18T23:12:32.867Z,68.02
2019-02-18T23:15:05.229Z,68.27
2019-02-18T23:17:37.305Z,68.88
2019-02-18T23:20:09.323Z,69.27
2019-02-18T23:22:41.328Z,69.25
2019-02-18T23:25:13.521Z,69.02
2019-02-18T23:27:45.522Z,69.32
2019-02-18T23:30:17.538Z,69.17
2019-02-18T23:32:49.577Z,69.15
2019-02-18T23:35:21.582Z,68.82
2019-02-18T23:37:53.541Z,68.85
2019-02-18T23:40:25.549Z,68.80
2019-02-18T23:42:57.519Z,68.86
2019-02-18T23:45:29.524Z,68.82
2019-02-18T23:48:01.503Z,68.55
2019-02-18T23:50:33.535Z,68.53
2019-02-18T23:53:05.947Z,68.86
2019-02-18T23:55:38.070Z,69.01
2019-02-18T23:58:10.037Z,69.14
